sensor_id;sensor_type;location;lat;lon;timestamp;P1;durP1;ratioP1;P2;durP2;ratioP2
15198;SDS011;7700;48.654;9.070;2022-09-29T00:00:55;5.73;;;3.77;;
15198;SDS011;7700;48.654;9.070;2022-09-29T00:03:22;4.80;;;3.93;;
15198;SDS011;7700;48.654;9.070;2022-09-29T00:05:48;3.80;;;3.50;;
15198;SDS011;7700;48.654;9.070;2022-09-29T00:08:15;4.43;;;3.70;;
15198;SDS011;7700;48.654;9.070;2022-09-29T00:10:41;5.43;;;4.23;;
15198;SDS011;7700;48.654;9.070;2022-09-29T00:13:07;4.03;;;3.73;;
15198;SDS011;7700;48.654;9.070;2022-09-29T00:15:33;3.70;;;3.40;;
15198;SDS011;7700;48.654;9.070;2022-09-29T00:17:59;4.63;;;3.77;;
15198;SDS011;7700;48.654;9.070;2022-09-29T00:20:25;4.47;;;4.17;;
15198;SDS011;7700;48.654;9.070;2022-09-29T00:22:51;5.17;;;4.23;;
15198;SDS011;7700;48.654;9.070;2022-09-29T00:25:17;5.33;;;4.80;;
15198;SDS011;7700;48.654;9.070;2022-09-29T00:27:43;5.93;;;4.37;;
15198;SDS011;7700;48.654;9.070;2022-09-29T00:30:10;4.57;;;4.17;;
15198;SDS011;7700;48.654;9.070;2022-09-29T00:32:36;5.27;;;4.27;;
15198;SDS011;7700;48.654;9.070;2022-09-29T00:35:02;4.93;;;4.43;;
15198;SDS011;7700;48.654;9.070;2022-09-29T00:37:28;4.30;;;3.90;;
15198;SDS011;7700;48.654;9.070;2022-09-29T00:39:55;4.83;;;4.30;;
15198;SDS011;7700;48.654;9.070;2022-09-29T00:42:21;4.03;;;3.73;;
15198;SDS011;7700;48.654;9.070;2022-09-29T00:45:32;7.20;;;3.83;;
15198;SDS011;7700;48.654;9.070;2022-09-29T00:47:33;4.40;;;4.00;;
15198;SDS011;7700;48.654;9.070;2022-09-29T00:50:05;4.53;;;4.13;;
15198;SDS011;7700;48.654;9.070;2022-09-29T00:52:38;5.87;;;3.80;;
15198;SDS011;7700;48.654;9.070;2022-09-29T00:55:07;4.63;;;4.03;;
15198;SDS011;7700;48.654;9.070;2022-09-29T00:57:39;3.97;;;3.50;;
15198;SDS011;7700;48.654;9.070;2022-09-29T01:00:08;4.37;;;3.80;;
15198;SDS011;7700;48.654;9.070;2022-09-29T01:02:42;4.00;;;3.70;;
15198;SDS011;7700;48.654;9.070;2022-09-29T01:05:13;4.93;;;3.97;;
15198;SDS011;7700;48.654;9.070;2022-09-29T01:07:40;5.97;;;3.80;;
15198;SDS011;7700;48.654;9.070;2022-09-29T01:10:10;6.13;;;4.17;;
15198;SDS011;7700;48.654;9.070;2022-09-29T01:12:36;6.53;;;3.70;;
15198;SDS011;7700;48.654;9.070;2022-09-29T01:15:02;5.43;;;4.10;;
15198;SDS011;7700;48.654;9.070;2022-09-29T01:17:28;4.13;;;3.80;;
15198;SDS011;7700;48.654;9.070;2022-09-29T01:33:22;3.87;;;3.57;;
15198;SDS011;7700;48.654;9.070;2022-09-29T01:35:51;3.50;;;3.20;;
15198;SDS011;7700;48.654;9.070;2022-09-29T01:38:26;4.57;;;3.17;;
15198;SDS011;7700;48.654;9.070;2022-09-29T01:46:03;3.63;;;3.33;;
15198;SDS011;7700;48.654;9.070;2022-09-29T01:48:33;3.77;;;3.40;;
15198;SDS011;7700;48.654;9.070;2022-09-29T01:51:03;4.67;;;3.43;;
15198;SDS011;7700;48.654;9.070;2022-09-29T01:53:33;4.00;;;3.33;;
15198;SDS011;7700;48.654;9.070;2022-09-29T01:56:01;3.53;;;3.33;;
15198;SDS011;7700;48.654;9.070;2022-09-29T01:58:32;4.17;;;3.53;;
15198;SDS011;7700;48.654;9.070;2022-09-29T02:01:02;4.97;;;3.03;;
15198;SDS011;7700;48.654;9.070;2022-09-29T02:03:31;3.43;;;2.83;;
15198;SDS011;7700;48.654;9.070;2022-09-29T02:06:14;3.80;;;3.37;;
15198;SDS011;7700;48.654;9.070;2022-09-29T02:08:43;3.73;;;3.40;;
15198;SDS011;7700;48.654;9.070;2022-09-29T02:11:12;3.63;;;3.33;;
15198;SDS011;7700;48.654;9.070;2022-09-29T02:13:40;3.53;;;3.23;;
15198;SDS011;7700;48.654;9.070;2022-09-29T02:16:10;5.60;;;3.60;;
15198;SDS011;7700;48.654;9.070;2022-09-29T02:18:39;3.73;;;3.43;;
15198;SDS011;7700;48.654;9.070;2022-09-29T02:21:08;4.47;;;3.27;;
15198;SDS011;7700;48.654;9.070;2022-09-29T02:23:34;3.40;;;3.10;;
15198;SDS011;7700;48.654;9.070;2022-09-29T02:26:00;3.20;;;3.00;;
15198;SDS011;7700;48.654;9.070;2022-09-29T02:28:27;3.57;;;3.27;;
15198;SDS011;7700;48.654;9.070;2022-09-29T02:30:53;8.10;;;5.47;;
15198;SDS011;7700;48.654;9.070;2022-09-29T02:33:20;19.17;;;13.37;;
15198;SDS011;7700;48.654;9.070;2022-09-29T02:35:58;22.00;;;15.40;;
15198;SDS011;7700;48.654;9.070;2022-09-29T02:38:29;17.70;;;14.73;;
15198;SDS011;7700;48.654;9.070;2022-09-29T02:40:59;13.83;;;10.67;;
15198;SDS011;7700;48.654;9.070;2022-09-29T02:48:36;3.93;;;3.60;;
15198;SDS011;7700;48.654;9.070;2022-09-29T02:56:43;3.17;;;2.93;;
15198;SDS011;7700;48.654;9.070;2022-09-29T02:59:30;3.50;;;3.07;;
15198;SDS011;7700;48.654;9.070;2022-09-29T03:01:57;3.37;;;3.07;;
15198;SDS011;7700;48.654;9.070;2022-09-29T03:04:27;4.40;;;4.00;;
15198;SDS011;7700;48.654;9.070;2022-09-29T03:06:53;5.20;;;3.70;;
15198;SDS011;7700;48.654;9.070;2022-09-29T03:09:19;3.57;;;3.27;;
15198;SDS011;7700;48.654;9.070;2022-09-29T03:11:45;3.47;;;3.17;;
15198;SDS011;7700;48.654;9.070;2022-09-29T03:14:11;3.37;;;2.97;;
15198;SDS011;7700;48.654;9.070;2022-09-29T03:16:37;3.17;;;2.90;;
15198;SDS011;7700;48.654;9.070;2022-09-29T03:19:04;3.50;;;2.90;;
15198;SDS011;7700;48.654;9.070;2022-09-29T03:21:31;5.73;;;3.33;;
15198;SDS011;7700;48.654;9.070;2022-09-29T03:23:57;3.40;;;3.10;;
15198;SDS011;7700;48.654;9.070;2022-09-29T03:26:23;4.20;;;3.03;;
15198;SDS011;7700;48.654;9.070;2022-09-29T03:28:50;5.57;;;2.70;;
15198;SDS011;7700;48.654;9.070;2022-09-29T03:31:16;3.60;;;3.10;;
15198;SDS011;7700;48.654;9.070;2022-09-29T03:33:43;3.10;;;2.80;;
15198;SDS011;7700;48.654;9.070;2022-09-29T03:36:09;4.50;;;3.53;;
15198;SDS011;7700;48.654;9.070;2022-09-29T03:38:35;3.47;;;3.17;;
15198;SDS011;7700;48.654;9.070;2022-09-29T03:41:02;3.77;;;3.40;;
15198;SDS011;7700;48.654;9.070;2022-09-29T03:43:28;3.67;;;3.37;;
15198;SDS011;7700;48.654;9.070;2022-09-29T03:45:54;3.00;;;2.70;;
15198;SDS011;7700;48.654;9.070;2022-09-29T03:48:21;4.67;;;3.57;;
15198;SDS011;7700;48.654;9.070;2022-09-29T03:50:48;3.47;;;3.20;;
15198;SDS011;7700;48.654;9.070;2022-09-29T03:53:14;3.60;;;3.30;;
15198;SDS011;7700;48.654;9.070;2022-09-29T03:55:44;3.37;;;3.07;;
15198;SDS011;7700;48.654;9.070;2022-09-29T03:58:10;3.20;;;2.80;;
15198;SDS011;7700;48.654;9.070;2022-09-29T04:00:36;3.33;;;3.03;;
15198;SDS011;7700;48.654;9.070;2022-09-29T04:03:02;3.63;;;3.33;;
15198;SDS011;7700;48.654;9.070;2022-09-29T04:05:28;3.40;;;3.10;;
15198;SDS011;7700;48.654;9.070;2022-09-29T04:07:55;4.77;;;3.37;;
15198;SDS011;7700;48.654;9.070;2022-09-29T04:10:21;3.77;;;3.30;;
15198;SDS011;7700;48.654;9.070;2022-09-29T04:12:47;5.77;;;3.20;;
15198;SDS011;7700;48.654;9.070;2022-09-29T04:15:13;7.07;;;4.50;;
15198;SDS011;7700;48.654;9.070;2022-09-29T04:17:39;4.10;;;3.70;;
15198;SDS011;7700;48.654;9.070;2022-09-29T04:20:05;3.97;;;3.63;;
15198;SDS011;7700;48.654;9.070;2022-09-29T04:22:31;3.43;;;3.13;;
15198;SDS011;7700;48.654;9.070;2022-09-29T04:24:57;4.00;;;3.43;;
15198;SDS011;7700;48.654;9.070;2022-09-29T04:27:23;10.60;;;4.20;;
15198;SDS011;7700;48.654;9.070;2022-09-29T04:29:49;27.43;;;5.90;;
15198;SDS011;7700;48.654;9.070;2022-09-29T04:32:15;38.47;;;6.23;;
15198;SDS011;7700;48.654;9.070;2022-09-29T04:34:41;4.40;;;3.40;;
15198;SDS011;7700;48.654;9.070;2022-09-29T04:37:08;3.90;;;3.50;;
15198;SDS011;7700;48.654;9.070;2022-09-29T04:39:37;4.73;;;3.33;;
15198;SDS011;7700;48.654;9.070;2022-09-29T04:42:03;44.47;;;5.07;;
15198;SDS011;7700;48.654;9.070;2022-09-29T04:44:29;4.10;;;3.23;;
15198;SDS011;7700;48.654;9.070;2022-09-29T04:46:55;6.00;;;3.07;;
15198;SDS011;7700;48.654;9.070;2022-09-29T04:49:21;72.00;;;9.73;;
15198;SDS011;7700;48.654;9.070;2022-09-29T04:51:47;7.37;;;3.33;;
15198;SDS011;7700;48.654;9.070;2022-09-29T04:54:13;13.20;;;3.67;;
15198;SDS011;7700;48.654;9.070;2022-09-29T04:56:39;3.20;;;3.00;;
15198;SDS011;7700;48.654;9.070;2022-09-29T04:59:06;3.43;;;3.13;;
15198;SDS011;7700;48.654;9.070;2022-09-29T05:01:32;6.47;;;4.97;;
15198;SDS011;7700;48.654;9.070;2022-09-29T05:03:58;6.10;;;5.50;;
15198;SDS011;7700;48.654;9.070;2022-09-29T05:06:24;4.73;;;4.40;;
15198;SDS011;7700;48.654;9.070;2022-09-29T05:08:50;4.00;;;3.70;;
15198;SDS011;7700;48.654;9.070;2022-09-29T05:11:16;4.00;;;3.60;;
15198;SDS011;7700;48.654;9.070;2022-09-29T05:13:42;3.00;;;2.73;;
15198;SDS011;7700;48.654;9.070;2022-09-29T05:16:08;5.47;;;3.93;;
15198;SDS011;7700;48.654;9.070;2022-09-29T05:18:34;5.43;;;4.77;;
15198;SDS011;7700;48.654;9.070;2022-09-29T05:21:01;5.80;;;4.40;;
15198;SDS011;7700;48.654;9.070;2022-09-29T05:23:28;5.03;;;4.63;;
15198;SDS011;7700;48.654;9.070;2022-09-29T05:25:54;6.10;;;5.53;;
15198;SDS011;7700;48.654;9.070;2022-09-29T05:28:20;7.20;;;6.13;;
15198;SDS011;7700;48.654;9.070;2022-09-29T05:30:46;4.60;;;4.20;;
15198;SDS011;7700;48.654;9.070;2022-09-29T05:33:12;3.90;;;3.60;;
15198;SDS011;7700;48.654;9.070;2022-09-29T05:35:38;6.90;;;3.97;;
15198;SDS011;7700;48.654;9.070;2022-09-29T05:38:04;4.10;;;3.70;;
15198;SDS011;7700;48.654;9.070;2022-09-29T05:40:31;6.23;;;3.57;;
15198;SDS011;7700;48.654;9.070;2022-09-29T05:42:57;4.93;;;3.80;;
15198;SDS011;7700;48.654;9.070;2022-09-29T05:45:24;4.00;;;3.37;;
15198;SDS011;7700;48.654;9.070;2022-09-29T05:47:50;4.60;;;4.20;;
15198;SDS011;7700;48.654;9.070;2022-09-29T05:50:18;5.20;;;4.70;;
15198;SDS011;7700;48.654;9.070;2022-09-29T05:52:44;7.40;;;5.47;;
15198;SDS011;7700;48.654;9.070;2022-09-29T05:55:13;6.00;;;4.73;;
15198;SDS011;7700;48.654;9.070;2022-09-29T05:57:39;9.30;;;6.43;;
15198;SDS011;7700;48.654;9.070;2022-09-29T06:00:05;5.23;;;3.73;;
15198;SDS011;7700;48.654;9.070;2022-09-29T06:02:31;5.47;;;4.00;;
15198;SDS011;7700;48.654;9.070;2022-09-29T06:04:58;5.10;;;4.60;;
15198;SDS011;7700;48.654;9.070;2022-09-29T06:07:24;7.00;;;6.30;;
15198;SDS011;7700;48.654;9.070;2022-09-29T06:09:50;5.90;;;5.27;;
15198;SDS011;7700;48.654;9.070;2022-09-29T06:12:16;6.13;;;5.40;;
15198;SDS011;7700;48.654;9.070;2022-09-29T06:14:42;6.97;;;5.43;;
15198;SDS011;7700;48.654;9.070;2022-09-29T06:17:08;6.30;;;5.70;;
15198;SDS011;7700;48.654;9.070;2022-09-29T06:19:34;5.50;;;4.83;;
15198;SDS011;7700;48.654;9.070;2022-09-29T06:22:00;8.57;;;5.07;;
15198;SDS011;7700;48.654;9.070;2022-09-29T06:24:26;11.30;;;4.50;;
15198;SDS011;7700;48.654;9.070;2022-09-29T06:26:52;14.80;;;5.00;;
15198;SDS011;7700;48.654;9.070;2022-09-29T06:29:18;4.97;;;4.33;;
15198;SDS011;7700;48.654;9.070;2022-09-29T06:31:44;5.23;;;4.40;;
15198;SDS011;7700;48.654;9.070;2022-09-29T06:34:11;5.13;;;4.17;;
15198;SDS011;7700;48.654;9.070;2022-09-29T06:36:40;5.23;;;4.73;;
15198;SDS011;7700;48.654;9.070;2022-09-29T06:39:25;12.53;;;11.27;;
15198;SDS011;7700;48.654;9.070;2022-09-29T06:41:52;7.23;;;6.63;;
15198;SDS011;7700;48.654;9.070;2022-09-29T06:44:22;5.53;;;4.97;;
15198;SDS011;7700;48.654;9.070;2022-09-29T06:46:52;6.83;;;4.63;;
15198;SDS011;7700;48.654;9.070;2022-09-29T06:49:18;5.30;;;4.80;;
15198;SDS011;7700;48.654;9.070;2022-09-29T06:51:45;5.57;;;4.97;;
15198;SDS011;7700;48.654;9.070;2022-09-29T06:54:12;4.47;;;4.17;;
15198;SDS011;7700;48.654;9.070;2022-09-29T06:56:38;4.80;;;4.30;;
15198;SDS011;7700;48.654;9.070;2022-09-29T06:59:04;4.53;;;4.13;;
15198;SDS011;7700;48.654;9.070;2022-09-29T07:01:30;4.70;;;4.30;;
15198;SDS011;7700;48.654;9.070;2022-09-29T07:03:56;5.90;;;4.13;;
15198;SDS011;7700;48.654;9.070;2022-09-29T07:06:24;5.00;;;4.60;;
15198;SDS011;7700;48.654;9.070;2022-09-29T07:08:54;5.33;;;4.37;;
15198;SDS011;7700;48.654;9.070;2022-09-29T07:11:20;4.90;;;4.50;;
15198;SDS011;7700;48.654;9.070;2022-09-29T07:13:46;7.03;;;5.00;;
15198;SDS011;7700;48.654;9.070;2022-09-29T07:16:12;10.87;;;6.43;;
15198;SDS011;7700;48.654;9.070;2022-09-29T07:18:39;6.40;;;5.70;;
15198;SDS011;7700;48.654;9.070;2022-09-29T07:21:06;6.03;;;5.43;;
15198;SDS011;7700;48.654;9.070;2022-09-29T07:23:34;5.37;;;4.87;;
15198;SDS011;7700;48.654;9.070;2022-09-29T07:26:00;6.10;;;5.53;;
15198;SDS011;7700;48.654;9.070;2022-09-29T07:28:27;7.87;;;5.80;;
15198;SDS011;7700;48.654;9.070;2022-09-29T07:31:04;7.87;;;5.87;;
15198;SDS011;7700;48.654;9.070;2022-09-29T07:33:30;9.47;;;6.17;;
15198;SDS011;7700;48.654;9.070;2022-09-29T07:35:56;8.83;;;6.33;;
15198;SDS011;7700;48.654;9.070;2022-09-29T07:38:26;12.07;;;6.73;;
15198;SDS011;7700;48.654;9.070;2022-09-29T07:40:52;11.90;;;7.43;;
15198;SDS011;7700;48.654;9.070;2022-09-29T07:43:18;12.20;;;8.63;;
15198;SDS011;7700;48.654;9.070;2022-09-29T07:45:46;8.97;;;7.13;;
15198;SDS011;7700;48.654;9.070;2022-09-29T07:48:12;9.03;;;7.67;;
15198;SDS011;7700;48.654;9.070;2022-09-29T07:50:38;8.50;;;7.60;;
15198;SDS011;7700;48.654;9.070;2022-09-29T07:53:04;8.10;;;7.10;;
15198;SDS011;7700;48.654;9.070;2022-09-29T07:55:31;8.93;;;6.90;;
15198;SDS011;7700;48.654;9.070;2022-09-29T07:57:57;7.43;;;6.73;;
15198;SDS011;7700;48.654;9.070;2022-09-29T08:00:23;10.03;;;7.00;;
15198;SDS011;7700;48.654;9.070;2022-09-29T08:02:49;10.47;;;7.50;;
15198;SDS011;7700;48.654;9.070;2022-09-29T08:05:15;7.60;;;6.90;;
15198;SDS011;7700;48.654;9.070;2022-09-29T08:07:42;7.23;;;6.57;;
15198;SDS011;7700;48.654;9.070;2022-09-29T08:10:08;6.40;;;5.80;;
15198;SDS011;7700;48.654;9.070;2022-09-29T08:12:34;6.80;;;6.20;;
15198;SDS011;7700;48.654;9.070;2022-09-29T08:15:00;6.50;;;5.50;;
15198;SDS011;7700;48.654;9.070;2022-09-29T08:17:26;7.03;;;6.40;;
15198;SDS011;7700;48.654;9.070;2022-09-29T08:19:52;5.93;;;5.33;;
15198;SDS011;7700;48.654;9.070;2022-09-29T08:22:18;6.03;;;5.43;;
15198;SDS011;7700;48.654;9.070;2022-09-29T08:24:44;8.03;;;6.30;;
15198;SDS011;7700;48.654;9.070;2022-09-29T08:27:10;5.70;;;5.10;;
15198;SDS011;7700;48.654;9.070;2022-09-29T08:29:36;6.70;;;6.20;;
15198;SDS011;7700;48.654;9.070;2022-09-29T08:32:02;6.33;;;5.10;;
15198;SDS011;7700;48.654;9.070;2022-09-29T08:34:28;7.90;;;5.77;;
15198;SDS011;7700;48.654;9.070;2022-09-29T08:36:54;5.00;;;4.50;;
15198;SDS011;7700;48.654;9.070;2022-09-29T08:39:20;4.00;;;3.70;;
15198;SDS011;7700;48.654;9.070;2022-09-29T08:44:33;4.10;;;3.60;;
15198;SDS011;7700;48.654;9.070;2022-09-29T08:47:24;4.87;;;3.73;;
15198;SDS011;7700;48.654;9.070;2022-09-29T08:49:48;4.87;;;3.70;;
15198;SDS011;7700;48.654;9.070;2022-09-29T08:52:19;3.67;;;3.37;;
15198;SDS011;7700;48.654;9.070;2022-09-29T08:54:46;4.83;;;3.07;;
15198;SDS011;7700;48.654;9.070;2022-09-29T08:57:14;4.07;;;3.00;;
15198;SDS011;7700;48.654;9.070;2022-09-29T08:59:41;3.60;;;3.30;;
15198;SDS011;7700;48.654;9.070;2022-09-29T09:07:43;4.50;;;3.90;;
15198;SDS011;7700;48.654;9.070;2022-09-29T09:27:32;3.20;;;2.40;;
15198;SDS011;7700;48.654;9.070;2022-09-29T09:30:02;4.75;;;3.08;;
15198;SDS011;7700;48.654;9.070;2022-09-29T09:32:29;2.63;;;2.27;;
15198;SDS011;7700;48.654;9.070;2022-09-29T09:35:00;4.00;;;2.40;;
15198;SDS011;7700;48.654;9.070;2022-09-29T09:37:38;3.77;;;2.80;;
15198;SDS011;7700;48.654;9.070;2022-09-29T09:42:39;3.40;;;2.13;;
15198;SDS011;7700;48.654;9.070;2022-09-29T09:45:26;2.50;;;2.30;;
15198;SDS011;7700;48.654;9.070;2022-09-29T09:50:39;2.47;;;2.27;;
15198;SDS011;7700;48.654;9.070;2022-09-29T09:55:36;2.83;;;1.83;;
15198;SDS011;7700;48.654;9.070;2022-09-29T09:58:17;2.33;;;2.10;;
15198;SDS011;7700;48.654;9.070;2022-09-29T10:03:30;3.60;;;2.40;;
15198;SDS011;7700;48.654;9.070;2022-09-29T10:05:56;3.90;;;2.60;;
15198;SDS011;7700;48.654;9.070;2022-09-29T10:08:27;3.17;;;1.97;;
15198;SDS011;7700;48.654;9.070;2022-09-29T10:10:53;1.80;;;1.70;;
15198;SDS011;7700;48.654;9.070;2022-09-29T10:13:20;3.10;;;1.77;;
15198;SDS011;7700;48.654;9.070;2022-09-29T10:18:41;2.38;;;2.20;;
15198;SDS011;7700;48.654;9.070;2022-09-29T10:21:18;2.67;;;1.90;;
15198;SDS011;7700;48.654;9.070;2022-09-29T10:23:50;2.58;;;1.48;;
15198;SDS011;7700;48.654;9.070;2022-09-29T10:26:17;2.38;;;1.73;;
15198;SDS011;7700;48.654;9.070;2022-09-29T10:28:50;2.40;;;1.42;;
15198;SDS011;7700;48.654;9.070;2022-09-29T10:31:19;2.00;;;1.80;;
15198;SDS011;7700;48.654;9.070;2022-09-29T10:33:55;1.65;;;1.42;;
15198;SDS011;7700;48.654;9.070;2022-09-29T10:36:22;3.35;;;1.40;;
15198;SDS011;7700;48.654;9.070;2022-09-29T10:38:49;2.55;;;1.80;;
15198;SDS011;7700;48.654;9.070;2022-09-29T10:41:16;3.55;;;1.55;;
15198;SDS011;7700;48.654;9.070;2022-09-29T10:43:44;2.10;;;1.73;;
15198;SDS011;7700;48.654;9.070;2022-09-29T10:49:14;1.77;;;1.55;;
15198;SDS011;7700;48.654;9.070;2022-09-29T10:51:41;1.85;;;1.60;;
15198;SDS011;7700;48.654;9.070;2022-09-29T10:54:13;4.30;;;1.77;;
15198;SDS011;7700;48.654;9.070;2022-09-29T10:56:45;4.35;;;1.75;;
15198;SDS011;7700;48.654;9.070;2022-09-29T10:59:12;1.48;;;1.38;;
15198;SDS011;7700;48.654;9.070;2022-09-29T11:01:46;1.95;;;1.75;;
15198;SDS011;7700;48.654;9.070;2022-09-29T11:04:18;1.65;;;1.40;;
15198;SDS011;7700;48.654;9.070;2022-09-29T11:06:47;2.67;;;1.80;;
15198;SDS011;7700;48.654;9.070;2022-09-29T11:17:00;2.05;;;1.60;;
15198;SDS011;7700;48.654;9.070;2022-09-29T11:19:28;1.90;;;1.60;;
15198;SDS011;7700;48.654;9.070;2022-09-29T11:22:08;2.63;;;1.65;;
15198;SDS011;7700;48.654;9.070;2022-09-29T11:24:45;2.53;;;1.48;;
15198;SDS011;7700;48.654;9.070;2022-09-29T11:27:19;3.13;;;1.63;;
15198;SDS011;7700;48.654;9.070;2022-09-29T11:40:15;1.27;;;1.13;;
15198;SDS011;7700;48.654;9.070;2022-09-29T11:45:21;1.52;;;1.10;;
15198;SDS011;7700;48.654;9.070;2022-09-29T11:50:45;2.58;;;1.10;;
15198;SDS011;7700;48.654;9.070;2022-09-29T11:56:22;1.77;;;1.48;;
15198;SDS011;7700;48.654;9.070;2022-09-29T11:59:06;2.15;;;2.03;;
15198;SDS011;7700;48.654;9.070;2022-09-29T12:04:20;4.00;;;2.92;;
15198;SDS011;7700;48.654;9.070;2022-09-29T12:17:07;1.20;;;1.00;;
15198;SDS011;7700;48.654;9.070;2022-09-29T12:19:35;1.27;;;0.85;;
15198;SDS011;7700;48.654;9.070;2022-09-29T12:22:02;1.83;;;1.55;;
15198;SDS011;7700;48.654;9.070;2022-09-29T12:24:50;1.35;;;1.25;;
15198;SDS011;7700;48.654;9.070;2022-09-29T12:27:31;1.85;;;1.13;;
15198;SDS011;7700;48.654;9.070;2022-09-29T12:30:02;1.88;;;1.77;;
15198;SDS011;7700;48.654;9.070;2022-09-29T12:32:36;2.80;;;2.30;;
15198;SDS011;7700;48.654;9.070;2022-09-29T12:37:45;5.05;;;4.80;;
15198;SDS011;7700;48.654;9.070;2022-09-29T12:40:18;4.18;;;3.83;;
15198;SDS011;7700;48.654;9.070;2022-09-29T12:50:32;2.72;;;2.53;;
15198;SDS011;7700;48.654;9.070;2022-09-29T12:56:00;2.58;;;2.47;;
15198;SDS011;7700;48.654;9.070;2022-09-29T12:58:30;2.47;;;2.28;;
15198;SDS011;7700;48.654;9.070;2022-09-29T13:01:31;4.30;;;4.10;;
15198;SDS011;7700;48.654;9.070;2022-09-29T13:06:27;1.92;;;1.83;;
15198;SDS011;7700;48.654;9.070;2022-09-29T13:29:21;2.08;;;1.88;;
15198;SDS011;7700;48.654;9.070;2022-09-29T13:31:48;2.35;;;2.20;;
15198;SDS011;7700;48.654;9.070;2022-09-29T13:34:30;2.85;;;2.72;;
15198;SDS011;7700;48.654;9.070;2022-09-29T13:39:41;1.75;;;1.38;;
15198;SDS011;7700;48.654;9.070;2022-09-29T13:47:40;4.00;;;3.85;;
15198;SDS011;7700;48.654;9.070;2022-09-29T13:52:54;4.47;;;4.28;;
15198;SDS011;7700;48.654;9.070;2022-09-29T13:58:22;7.78;;;7.32;;
15198;SDS011;7700;48.654;9.070;2022-09-29T14:00:48;6.05;;;5.75;;
15198;SDS011;7700;48.654;9.070;2022-09-29T14:03:20;7.68;;;7.38;;
15198;SDS011;7700;48.654;9.070;2022-09-29T14:05:51;5.75;;;5.45;;
15198;SDS011;7700;48.654;9.070;2022-09-29T14:08:18;5.03;;;4.88;;
15198;SDS011;7700;48.654;9.070;2022-09-29T14:10:51;5.30;;;4.68;;
15198;SDS011;7700;48.654;9.070;2022-09-29T14:13:23;9.15;;;8.77;;
15198;SDS011;7700;48.654;9.070;2022-09-29T14:15:52;11.00;;;10.57;;
15198;SDS011;7700;48.654;9.070;2022-09-29T14:18:30;15.00;;;14.48;;
15198;SDS011;7700;48.654;9.070;2022-09-29T14:20:58;12.30;;;11.90;;
15198;SDS011;7700;48.654;9.070;2022-09-29T14:29:01;8.27;;;7.93;;
15198;SDS011;7700;48.654;9.070;2022-09-29T14:31:27;5.22;;;5.03;;
15198;SDS011;7700;48.654;9.070;2022-09-29T14:33:53;4.20;;;4.00;;
15198;SDS011;7700;48.654;9.070;2022-09-29T14:36:20;4.25;;;3.95;;
15198;SDS011;7700;48.654;9.070;2022-09-29T14:38:49;3.67;;;3.47;;
15198;SDS011;7700;48.654;9.070;2022-09-29T14:41:38;4.07;;;3.15;;
15198;SDS011;7700;48.654;9.070;2022-09-29T14:47:28;3.50;;;3.40;;
15198;SDS011;7700;48.654;9.070;2022-09-29T14:49:49;2.10;;;2.00;;
15198;SDS011;7700;48.654;9.070;2022-09-29T14:52:48;1.60;;;1.33;;
15198;SDS011;7700;48.654;9.070;2022-09-29T15:00:20;2.60;;;2.50;;
15198;SDS011;7700;48.654;9.070;2022-09-29T15:02:51;1.77;;;1.65;;
15198;SDS011;7700;48.654;9.070;2022-09-29T15:07:48;2.13;;;2.03;;
15198;SDS011;7700;48.654;9.070;2022-09-29T15:10:22;1.00;;;1.00;;
15198;SDS011;7700;48.654;9.070;2022-09-29T15:12:48;1.48;;;1.38;;
15198;SDS011;7700;48.654;9.070;2022-09-29T15:15:34;2.97;;;2.15;;
15198;SDS011;7700;48.654;9.070;2022-09-29T15:18:24;1.10;;;1.10;;
15198;SDS011;7700;48.654;9.070;2022-09-29T15:25:54;2.22;;;2.13;;
15198;SDS011;7700;48.654;9.070;2022-09-29T15:28:32;3.47;;;3.33;;
15198;SDS011;7700;48.654;9.070;2022-09-29T15:31:00;3.25;;;3.05;;
15198;SDS011;7700;48.654;9.070;2022-09-29T15:33:28;3.50;;;3.30;;
15198;SDS011;7700;48.654;9.070;2022-09-29T15:35:55;4.25;;;4.03;;
15198;SDS011;7700;48.654;9.070;2022-09-29T15:40:57;3.42;;;3.08;;
15198;SDS011;7700;48.654;9.070;2022-09-29T15:43:25;3.58;;;2.65;;
15198;SDS011;7700;48.654;9.070;2022-09-29T15:45:57;3.92;;;3.72;;
15198;SDS011;7700;48.654;9.070;2022-09-29T15:48:24;2.47;;;2.38;;
15198;SDS011;7700;48.654;9.070;2022-09-29T15:50:51;2.42;;;1.73;;
15198;SDS011;7700;48.654;9.070;2022-09-29T15:53:24;2.80;;;2.55;;
15198;SDS011;7700;48.654;9.070;2022-09-29T15:55:51;1.98;;;1.67;;
15198;SDS011;7700;48.654;9.070;2022-09-29T16:00:57;1.67;;;1.58;;
15198;SDS011;7700;48.654;9.070;2022-09-29T16:03:25;2.35;;;1.58;;
15198;SDS011;7700;48.654;9.070;2022-09-29T16:06:36;3.10;;;2.10;;
15198;SDS011;7700;48.654;9.070;2022-09-29T16:08:38;2.38;;;1.70;;
15198;SDS011;7700;48.654;9.070;2022-09-29T16:11:07;1.95;;;1.75;;
15198;SDS011;7700;48.654;9.070;2022-09-29T16:13:37;4.20;;;1.60;;
15198;SDS011;7700;48.654;9.070;2022-09-29T16:16:08;2.97;;;1.65;;
15198;SDS011;7700;48.654;9.070;2022-09-29T16:21:05;4.22;;;2.03;;
15198;SDS011;7700;48.654;9.070;2022-09-29T16:31:25;2.78;;;1.70;;
15198;SDS011;7700;48.654;9.070;2022-09-29T16:33:55;2.83;;;1.80;;
15198;SDS011;7700;48.654;9.070;2022-09-29T16:36:22;3.55;;;2.03;;
15198;SDS011;7700;48.654;9.070;2022-09-29T16:38:49;3.45;;;1.70;;
15198;SDS011;7700;48.654;9.070;2022-09-29T16:41:27;3.53;;;2.08;;
15198;SDS011;7700;48.654;9.070;2022-09-29T16:44:11;3.95;;;1.98;;
15198;SDS011;7700;48.654;9.070;2022-09-29T16:49:30;3.67;;;2.05;;
15198;SDS011;7700;48.654;9.070;2022-09-29T16:54:39;3.15;;;1.98;;
15198;SDS011;7700;48.654;9.070;2022-09-29T16:57:28;2.20;;;2.00;;
15198;SDS011;7700;48.654;9.070;2022-09-29T16:59:56;4.82;;;2.22;;
15198;SDS011;7700;48.654;9.070;2022-09-29T17:02:23;4.43;;;2.00;;
15198;SDS011;7700;48.654;9.070;2022-09-29T17:04:50;2.45;;;1.83;;
15198;SDS011;7700;48.654;9.070;2022-09-29T17:07:16;3.45;;;1.70;;
15198;SDS011;7700;48.654;9.070;2022-09-29T17:09:44;4.18;;;1.90;;
15198;SDS011;7700;48.654;9.070;2022-09-29T17:12:11;5.05;;;2.00;;
15198;SDS011;7700;48.654;9.070;2022-09-29T17:14:38;2.55;;;1.60;;
15198;SDS011;7700;48.654;9.070;2022-09-29T17:17:04;5.28;;;2.40;;
15198;SDS011;7700;48.654;9.070;2022-09-29T17:19:30;4.90;;;2.22;;
15198;SDS011;7700;48.654;9.070;2022-09-29T17:21:56;4.15;;;2.25;;
15198;SDS011;7700;48.654;9.070;2022-09-29T17:24:23;3.60;;;2.53;;
15198;SDS011;7700;48.654;9.070;2022-09-29T17:26:49;4.93;;;3.08;;
15198;SDS011;7700;48.654;9.070;2022-09-29T17:29:34;4.50;;;3.60;;
15198;SDS011;7700;48.654;9.070;2022-09-29T17:32:00;5.22;;;3.97;;
15198;SDS011;7700;48.654;9.070;2022-09-29T17:34:27;6.63;;;5.67;;
15198;SDS011;7700;48.654;9.070;2022-09-29T17:36:56;8.57;;;6.90;;
15198;SDS011;7700;48.654;9.070;2022-09-29T17:39:25;7.90;;;6.80;;
15198;SDS011;7700;48.654;9.070;2022-09-29T17:41:51;8.47;;;6.60;;
15198;SDS011;7700;48.654;9.070;2022-09-29T17:44:17;7.37;;;6.43;;
15198;SDS011;7700;48.654;9.070;2022-09-29T17:46:44;6.63;;;5.93;;
15198;SDS011;7700;48.654;9.070;2022-09-29T17:49:11;6.70;;;5.40;;
15198;SDS011;7700;48.654;9.070;2022-09-29T17:51:38;6.40;;;5.40;;
15198;SDS011;7700;48.654;9.070;2022-09-29T17:54:04;6.70;;;4.50;;
15198;SDS011;7700;48.654;9.070;2022-09-29T17:56:30;7.20;;;4.93;;
15198;SDS011;7700;48.654;9.070;2022-09-29T17:59:02;12.93;;;8.57;;
15198;SDS011;7700;48.654;9.070;2022-09-29T18:01:29;10.93;;;6.87;;
15198;SDS011;7700;48.654;9.070;2022-09-29T18:03:57;7.53;;;6.53;;
15198;SDS011;7700;48.654;9.070;2022-09-29T18:06:23;7.50;;;6.30;;
15198;SDS011;7700;48.654;9.070;2022-09-29T18:08:51;8.67;;;6.10;;
15198;SDS011;7700;48.654;9.070;2022-09-29T18:11:17;8.17;;;5.53;;
15198;SDS011;7700;48.654;9.070;2022-09-29T18:13:44;6.13;;;4.80;;
15198;SDS011;7700;48.654;9.070;2022-09-29T18:16:14;5.57;;;4.73;;
15198;SDS011;7700;48.654;9.070;2022-09-29T18:18:40;5.90;;;5.10;;
15198;SDS011;7700;48.654;9.070;2022-09-29T18:21:06;5.90;;;5.30;;
15198;SDS011;7700;48.654;9.070;2022-09-29T18:23:32;8.70;;;5.27;;
15198;SDS011;7700;48.654;9.070;2022-09-29T18:25:59;5.60;;;4.77;;
15198;SDS011;7700;48.654;9.070;2022-09-29T18:28:25;7.87;;;5.70;;
15198;SDS011;7700;48.654;9.070;2022-09-29T18:30:56;12.10;;;10.27;;
15198;SDS011;7700;48.654;9.070;2022-09-29T18:33:26;5.27;;;4.20;;